createdAt,value
2023-08-31T00:02:00.361Z,5.97
2023-08-31T00:05:02.051Z,6.60
2023-08-31T00:08:03.470Z,6.90
2023-08-31T00:11:04.886Z,5.85
2023-08-31T00:14:06.326Z,6.45
2023-08-31T00:17:07.673Z,5.13
2023-08-31T00:20:12.842Z,4.70
2023-08-31T00:23:14.425Z,5.90
2023-08-31T00:26:15.985Z,6.05
2023-08-31T00:29:17.529Z,6.38
2023-08-31T00:32:23.270Z,5.35
2023-08-31T00:35:25.555Z,5.85
2023-08-31T00:38:26.832Z,5.20
2023-08-31T00:41:28.228Z,5.40
2023-08-31T00:44:29.853Z,4.90
2023-08-31T00:47:31.236Z,4.82
2023-08-31T00:50:32.600Z,5.03
2023-08-31T00:53:34.851Z,4.38
2023-08-31T00:56:36.235Z,4.65
2023-08-31T00:59:37.724Z,5.47
2023-08-31T01:02:49.788Z,5.15
2023-08-31T01:05:54.220Z,5.35
2023-08-31T01:09:11.212Z,5.05
2023-08-31T01:12:38.952Z,5.18
2023-08-31T01:15:42.728Z,4.65
2023-08-31T01:18:44.797Z,5.38
2023-08-31T01:21:48.351Z,5.72
2023-08-31T01:24:49.975Z,5.50
2023-08-31T01:27:51.900Z,5.00
2023-08-31T01:30:53.274Z,5.82
2023-08-31T01:33:54.723Z,4.88
2023-08-31T01:36:59.645Z,5.20
2023-08-31T01:40:05.763Z,4.85
2023-08-31T01:43:07.672Z,5.32
2023-08-31T01:46:09.771Z,5.10
2023-08-31T01:49:11.303Z,6.57
2023-08-31T01:52:12.640Z,6.10
2023-08-31T01:55:16.775Z,5.22
2023-08-31T01:58:18.170Z,6.25
2023-08-31T02:01:19.499Z,4.47
2023-08-31T02:04:20.884Z,6.03
2023-08-31T02:07:22.255Z,5.80
2023-08-31T02:10:23.553Z,5.75
2023-08-31T02:13:24.868Z,5.47
2023-08-31T02:16:26.210Z,5.68
2023-08-31T02:19:27.626Z,6.50
2023-08-31T02:22:29.134Z,5.10
2023-08-31T02:25:30.620Z,5.05
2023-08-31T02:28:31.959Z,4.45
2023-08-31T02:31:33.476Z,5.90
2023-08-31T02:34:34.824Z,5.65
2023-08-31T02:37:36.191Z,4.80
2023-08-31T02:40:37.892Z,4.05
2023-08-31T02:43:40.231Z,4.90
2023-08-31T02:46:41.553Z,4.53
2023-08-31T02:49:42.877Z,5.15
2023-08-31T02:52:44.218Z,4.75
2023-08-31T02:55:45.603Z,4.72
2023-08-31T02:58:46.945Z,5.32
2023-08-31T03:01:49.669Z,5.30
2023-08-31T03:04:51.336Z,4.93
2023-08-31T03:07:53.002Z,4.85
2023-08-31T03:10:54.352Z,5.18
2023-08-31T03:13:55.657Z,4.68
2023-08-31T03:16:57.004Z,5.30
2023-08-31T03:19:58.450Z,6.22
2023-08-31T03:22:59.828Z,5.90
2023-08-31T03:26:01.275Z,6.45
2023-08-31T03:29:02.757Z,5.32
2023-08-31T03:32:04.317Z,5.30
2023-08-31T03:35:05.971Z,4.93
2023-08-31T03:38:07.333Z,6.13
2023-08-31T03:41:08.629Z,4.72
2023-08-31T03:44:10.303Z,5.63
2023-08-31T03:47:11.620Z,5.10
2023-08-31T03:50:13.028Z,4.95
2023-08-31T03:53:14.677Z,4.80
2023-08-31T03:56:16.118Z,5.38
2023-08-31T03:59:17.429Z,5.03
2023-08-31T04:02:18.743Z,5.07
2023-08-31T04:05:20.668Z,5.57
2023-08-31T04:08:22.012Z,5.68
2023-08-31T04:11:23.520Z,5.10
2023-08-31T04:14:26.719Z,5.60
2023-08-31T04:17:28.130Z,6.22
2023-08-31T04:20:29.727Z,6.10
2023-08-31T04:23:31.126Z,5.55
2023-08-31T04:26:32.712Z,5.97
2023-08-31T04:29:33.991Z,5.55
2023-08-31T04:32:36.486Z,5.57
2023-08-31T04:35:37.913Z,6.28
2023-08-31T04:38:39.254Z,6.38
2023-08-31T04:41:40.537Z,5.93
2023-08-31T04:44:41.810Z,6.88
2023-08-31T04:47:43.253Z,7.03
2023-08-31T04:50:44.627Z,6.65
2023-08-31T04:53:45.937Z,6.22
2023-08-31T04:56:47.348Z,6.57
2023-08-31T04:59:48.634Z,6.57
2023-08-31T05:02:50.033Z,7.88
2023-08-31T05:05:51.399Z,7.35
2023-08-31T05:08:52.757Z,7.13
2023-08-31T05:11:54.103Z,7.85
2023-08-31T05:14:55.421Z,7.85
2023-08-31T05:17:57.215Z,7.82
2023-08-31T05:20:58.625Z,7.47
2023-08-31T05:23:59.966Z,6.88
2023-08-31T05:27:01.324Z,6.18
2023-08-31T05:30:03.101Z,6.50
2023-08-31T05:33:04.759Z,6.80
2023-08-31T05:36:06.235Z,8.00
2023-08-31T05:39:07.565Z,8.15
2023-08-31T05:42:08.973Z,7.63
2023-08-31T05:45:10.791Z,5.95
2023-08-31T05:48:12.209Z,5.65
2023-08-31T05:51:13.692Z,6.97
2023-08-31T05:54:15.121Z,5.05
2023-08-31T05:57:19.764Z,5.82
2023-08-31T06:00:21.109Z,6.20
2023-08-31T06:03:22.452Z,6.45
2023-08-31T06:06:23.809Z,6.78
2023-08-31T06:09:25.104Z,6.47
2023-08-31T06:12:26.431Z,5.85
2023-08-31T06:15:27.770Z,6.60
2023-08-31T06:18:29.204Z,6.93
2023-08-31T06:21:30.485Z,5.95
2023-08-31T06:24:33.575Z,6.00
2023-08-31T06:27:34.937Z,6.22
2023-08-31T06:30:36.371Z,5.88
2023-08-31T06:33:37.759Z,5.88
2023-08-31T06:36:39.412Z,5.10
2023-08-31T06:39:41.973Z,4.93
2023-08-31T06:42:43.365Z,4.85
2023-08-31T06:45:44.712Z,5.20
2023-08-31T06:48:46.046Z,4.43
2023-08-31T06:51:47.507Z,3.83
2023-08-31T06:54:48.918Z,4.53
2023-08-31T06:57:50.231Z,4.38
2023-08-31T07:00:51.627Z,4.75
2023-08-31T07:03:53.036Z,4.38
2023-08-31T07:06:54.409Z,4.60
2023-08-31T07:09:55.858Z,3.83
2023-08-31T07:12:57.282Z,4.90
2023-08-31T07:15:58.696Z,3.95
2023-08-31T07:19:00.302Z,4.28
2023-08-31T07:22:01.735Z,4.47
2023-08-31T07:25:04.670Z,3.97
2023-08-31T07:28:06.037Z,3.67
2023-08-31T07:31:08.071Z,3.70
2023-08-31T07:34:09.535Z,3.80
2023-08-31T07:37:10.937Z,3.58
2023-08-31T07:40:12.486Z,3.60
2023-08-31T07:43:15.082Z,4.03
2023-08-31T07:46:17.225Z,3.45
2023-08-31T07:49:18.623Z,3.53
2023-08-31T07:52:20.471Z,3.22
2023-08-31T07:55:21.771Z,3.15
2023-08-31T07:58:23.815Z,2.85
2023-08-31T08:01:25.373Z,2.63
2023-08-31T08:04:27.808Z,4.43
2023-08-31T08:07:29.133Z,3.15
2023-08-31T08:10:30.860Z,3.67
2023-08-31T08:13:32.167Z,3.30
2023-08-31T08:16:33.597Z,4.00
2023-08-31T08:19:35.002Z,3.05
2023-08-31T08:22:37.237Z,3.00
2023-08-31T08:25:38.717Z,2.20
2023-08-31T08:28:40.087Z,2.42
2023-08-31T08:31:41.606Z,1.70
2023-08-31T08:34:42.937Z,2.03
2023-08-31T08:37:44.290Z,2.45
2023-08-31T08:40:45.685Z,1.98
2023-08-31T08:43:47.934Z,1.55
2023-08-31T08:46:49.630Z,1.80
2023-08-31T08:49:51.180Z,2.08
2023-08-31T08:52:52.621Z,2.08
2023-08-31T08:55:54.044Z,1.80
2023-08-31T08:58:55.340Z,2.10
2023-08-31T09:01:56.945Z,1.80
2023-08-31T09:04:58.739Z,2.03
2023-08-31T09:08:04.033Z,1.75
2023-08-31T09:11:05.936Z,2.10
2023-08-31T09:14:20.621Z,1.60
2023-08-31T09:17:23.653Z,2.00
2023-08-31T09:20:25.218Z,1.80
2023-08-31T09:23:26.705Z,1.80
2023-08-31T09:26:28.215Z,1.95
2023-08-31T09:29:29.559Z,1.45
2023-08-31T09:32:31.057Z,1.40
2023-08-31T09:35:32.856Z,1.90
2023-08-31T09:38:42.268Z,1.83
2023-08-31T09:41:56.350Z,1.88
2023-08-31T09:44:57.718Z,1.70
2023-08-31T09:48:02.692Z,1.52
2023-08-31T09:51:10.851Z,1.80
2023-08-31T09:54:14.500Z,1.40
2023-08-31T09:57:16.081Z,1.58
2023-08-31T10:00:18.137Z,1.80
2023-08-31T10:03:21.492Z,1.98
2023-08-31T10:06:23.157Z,1.52
2023-08-31T10:09:24.506Z,1.20
2023-08-31T10:12:26.228Z,1.85
2023-08-31T10:15:37.317Z,1.23
2023-08-31T10:18:38.697Z,1.75
2023-08-31T10:21:41.621Z,1.70
2023-08-31T10:25:01.850Z,1.67
2023-08-31T10:28:17.076Z,1.60
2023-08-31T10:31:18.906Z,1.90
2023-08-31T10:34:34.808Z,1.73
2023-08-31T10:37:36.278Z,1.92
2023-08-31T10:40:37.596Z,1.35
2023-08-31T10:43:50.084Z,2.10
2023-08-31T10:46:52.083Z,1.80
2023-08-31T10:49:54.665Z,1.55
2023-08-31T10:52:56.051Z,2.00
2023-08-31T10:55:57.431Z,1.95
2023-08-31T10:58:59.502Z,1.70
2023-08-31T11:02:04.061Z,1.90
2023-08-31T11:05:15.697Z,1.83
2023-08-31T11:08:17.659Z,1.67
2023-08-31T11:11:23.812Z,1.80
2023-08-31T11:14:25.220Z,1.90
2023-08-31T11:17:28.220Z,1.77
2023-08-31T11:20:35.052Z,2.00
2023-08-31T11:23:36.961Z,1.60
2023-08-31T11:26:38.698Z,2.05
2023-08-31T11:29:46.364Z,1.60
2023-08-31T11:32:48.538Z,1.95
2023-08-31T11:35:50.019Z,1.50
2023-08-31T11:38:51.922Z,1.77
2023-08-31T11:41:53.326Z,1.80
2023-08-31T11:44:54.817Z,1.50
2023-08-31T11:47:56.506Z,1.20
2023-08-31T11:50:58.111Z,1.55
2023-08-31T11:54:00.746Z,1.63
2023-08-31T11:57:02.030Z,1.60
2023-08-31T12:00:04.992Z,1.30
2023-08-31T12:03:09.748Z,1.90
2023-08-31T12:06:11.319Z,1.70
2023-08-31T12:09:12.931Z,1.75
2023-08-31T12:12:14.907Z,1.65
2023-08-31T12:15:16.237Z,1.90
2023-08-31T12:18:17.578Z,2.10
2023-08-31T12:21:20.317Z,1.98
2023-08-31T12:24:23.387Z,1.90
2023-08-31T12:27:24.790Z,2.10
2023-08-31T12:30:27.013Z,2.25
2023-08-31T12:33:28.428Z,1.83
2023-08-31T12:36:29.747Z,1.88
2023-08-31T12:39:31.161Z,2.10
2023-08-31T12:42:32.512Z,2.10
2023-08-31T12:45:34.061Z,2.00
2023-08-31T12:48:35.482Z,1.95
2023-08-31T12:51:37.456Z,2.10
2023-08-31T12:54:38.760Z,2.25
2023-08-31T12:57:40.119Z,1.80
2023-08-31T13:00:41.889Z,2.20
2023-08-31T13:03:43.262Z,2.13
2023-08-31T13:06:44.642Z,2.00
2023-08-31T13:09:49.159Z,2.25
2023-08-31T13:12:50.532Z,2.15
2023-08-31T13:15:52.014Z,2.15
2023-08-31T13:19:07.924Z,2.17
2023-08-31T13:22:09.404Z,2.15
2023-08-31T13:25:12.439Z,1.98
2023-08-31T13:28:14.033Z,1.80
2023-08-31T13:31:16.025Z,1.90
2023-08-31T13:34:17.461Z,2.30
2023-08-31T13:37:18.813Z,1.75
2023-08-31T13:40:20.329Z,2.15
2023-08-31T13:43:21.636Z,1.92
2023-08-31T13:46:22.999Z,2.10
2023-08-31T13:49:24.389Z,2.00
2023-08-31T13:52:25.918Z,3.40
2023-08-31T13:55:28.192Z,1.90
2023-08-31T13:58:32.576Z,2.20
2023-08-31T14:01:33.997Z,2.05
2023-08-31T14:04:35.410Z,1.80
2023-08-31T14:07:37.245Z,2.20
2023-08-31T14:10:40.435Z,2.38
2023-08-31T14:13:44.262Z,1.83
2023-08-31T14:19:46.851Z,2.10
2023-08-31T14:22:51.589Z,2.10
2023-08-31T14:25:52.939Z,2.03
2023-08-31T14:28:56.568Z,2.10
2023-08-31T14:31:57.971Z,2.53
2023-08-31T14:34:59.537Z,2.10
2023-08-31T14:38:00.847Z,2.33
2023-08-31T14:41:02.339Z,2.35
2023-08-31T14:44:03.703Z,2.30
2023-08-31T14:47:05.144Z,2.55
2023-08-31T14:50:06.737Z,1.70
2023-08-31T14:53:08.031Z,1.98
2023-08-31T14:56:09.351Z,2.20
2023-08-31T14:59:10.687Z,2.05
2023-08-31T15:02:12.037Z,1.83
2023-08-31T15:05:14.239Z,2.30
2023-08-31T15:08:17.651Z,2.38
2023-08-31T15:11:19.104Z,2.50
2023-08-31T15:14:20.487Z,2.17
2023-08-31T15:17:21.847Z,2.60
2023-08-31T15:20:24.403Z,2.10
2023-08-31T15:23:25.900Z,2.25
2023-08-31T15:26:27.326Z,2.20
2023-08-31T15:29:28.958Z,2.17
2023-08-31T15:32:30.327Z,2.15
2023-08-31T15:35:32.827Z,2.10
2023-08-31T15:38:34.534Z,1.85
2023-08-31T15:41:37.241Z,2.20
2023-08-31T15:44:41.256Z,1.55
2023-08-31T15:47:42.665Z,2.38
2023-08-31T15:50:43.977Z,2.33
2023-08-31T15:53:45.313Z,2.30
2023-08-31T15:56:46.683Z,2.38
2023-08-31T15:59:48.359Z,1.60
2023-08-31T16:02:49.798Z,2.83
2023-08-31T16:05:51.167Z,2.33
2023-08-31T16:08:52.511Z,2.60
2023-08-31T16:11:53.834Z,2.72
2023-08-31T16:14:55.234Z,2.40
2023-08-31T16:17:56.666Z,2.22
2023-08-31T16:20:59.850Z,2.33
2023-08-31T16:24:01.314Z,2.38
2023-08-31T16:27:03.593Z,2.08
2023-08-31T16:30:05.465Z,2.72
2023-08-31T16:33:06.854Z,2.47
2023-08-31T16:36:08.204Z,2.58
2023-08-31T16:39:09.552Z,2.75
2023-08-31T16:42:12.285Z,2.50
2023-08-31T16:45:13.972Z,2.50
2023-08-31T16:48:15.554Z,2.20
2023-08-31T16:51:18.147Z,2.53
2023-08-31T16:54:19.501Z,2.17
2023-08-31T16:57:20.828Z,2.42
2023-08-31T17:00:22.920Z,2.60
2023-08-31T17:03:24.405Z,2.67
2023-08-31T17:06:26.575Z,3.05
2023-08-31T17:09:27.976Z,2.38
2023-08-31T17:12:29.380Z,2.67
2023-08-31T17:15:32.224Z,2.70
2023-08-31T17:18:34.116Z,2.78
2023-08-31T17:21:35.628Z,2.72
2023-08-31T17:24:36.931Z,2.50
2023-08-31T17:27:38.760Z,2.70
2023-08-31T17:30:41.070Z,2.53
2023-08-31T17:33:43.531Z,2.90
2023-08-31T17:36:45.279Z,2.83
2023-08-31T17:39:47.020Z,2.17
2023-08-31T17:42:48.393Z,2.80
2023-08-31T17:45:49.884Z,1.90
2023-08-31T17:48:51.857Z,2.80
2023-08-31T17:51:53.170Z,2.40
2023-08-31T17:54:54.487Z,1.75
2023-08-31T17:57:56.033Z,2.60
2023-08-31T18:00:57.758Z,2.38
2023-08-31T18:04:00.074Z,2.33
2023-08-31T18:07:02.033Z,2.65
2023-08-31T18:10:04.192Z,2.55
2023-08-31T18:13:05.500Z,2.10
2023-08-31T18:16:06.933Z,2.90
2023-08-31T18:19:08.708Z,2.10
2023-08-31T18:22:10.091Z,2.00
2023-08-31T18:25:11.519Z,2.53
2023-08-31T18:28:13.050Z,2.33
2023-08-31T18:31:14.635Z,1.90
2023-08-31T18:34:16.072Z,2.08
2023-08-31T18:37:17.400Z,1.90
2023-08-31T18:40:19.299Z,3.10
2023-08-31T18:43:21.141Z,2.17
2023-08-31T18:46:22.496Z,2.90
2023-08-31T18:49:23.889Z,2.90
2023-08-31T18:52:25.270Z,3.10
2023-08-31T18:55:26.642Z,3.38
2023-08-31T18:58:28.790Z,2.80
2023-08-31T19:01:30.191Z,2.70
2023-08-31T19:04:31.541Z,2.67
2023-08-31T19:07:32.883Z,3.97
2023-08-31T19:10:36.753Z,3.22
2023-08-31T19:13:39.453Z,3.58
2023-08-31T19:16:40.845Z,3.83
2023-08-31T19:19:42.193Z,2.92
2023-08-31T19:22:44.548Z,3.92
2023-08-31T19:25:46.008Z,5.00
2023-08-31T19:28:47.352Z,6.97
2023-08-31T19:31:48.805Z,6.53
2023-08-31T19:34:50.213Z,4.78
2023-08-31T19:37:52.487Z,5.15
2023-08-31T19:40:53.857Z,4.50
2023-08-31T19:43:55.148Z,4.15
2023-08-31T19:46:59.219Z,3.63
2023-08-31T19:50:10.611Z,4.30
2023-08-31T19:53:12.475Z,4.10
2023-08-31T19:56:16.639Z,5.15
2023-08-31T20:02:20.035Z,4.15
2023-08-31T20:05:22.474Z,4.70
2023-08-31T20:08:23.930Z,5.00
2023-08-31T20:11:25.296Z,4.68
2023-08-31T20:14:26.652Z,4.45
2023-08-31T20:17:28.897Z,5.47
2023-08-31T20:20:30.285Z,4.47
2023-08-31T20:23:31.700Z,4.95
2023-08-31T20:26:33.058Z,4.70
2023-08-31T20:29:34.365Z,4.45
2023-08-31T20:32:37.919Z,4.88
2023-08-31T20:35:39.377Z,5.30
2023-08-31T20:38:40.853Z,4.65
2023-08-31T20:41:42.260Z,4.78
2023-08-31T20:44:43.748Z,5.30
2023-08-31T20:47:45.771Z,4.68
2023-08-31T20:50:47.629Z,5.30
2023-08-31T20:53:51.612Z,4.05
2023-08-31T20:56:53.038Z,4.75
2023-08-31T20:59:54.579Z,3.95
2023-08-31T21:02:55.921Z,3.85
2023-08-31T21:05:57.296Z,3.42
2023-08-31T21:08:58.641Z,3.85
2023-08-31T21:11:59.946Z,5.03
2023-08-31T21:15:01.358Z,4.47
2023-08-31T21:18:03.740Z,4.78
2023-08-31T21:21:05.082Z,3.75
2023-08-31T21:24:06.506Z,3.92
2023-08-31T21:27:08.540Z,3.92
2023-08-31T21:30:09.946Z,3.63
2023-08-31T21:33:11.353Z,3.97
2023-08-31T21:36:12.808Z,5.47
2023-08-31T21:39:14.135Z,5.70
2023-08-31T21:42:15.518Z,5.85
2023-08-31T21:45:16.891Z,6.32
2023-08-31T21:48:18.321Z,5.13
2023-08-31T21:51:19.765Z,6.10
2023-08-31T21:54:21.096Z,7.43
2023-08-31T21:57:22.421Z,5.97
2023-08-31T22:00:23.936Z,5.40
2023-08-31T22:03:25.351Z,4.15
2023-08-31T22:06:26.864Z,4.88
2023-08-31T22:09:28.269Z,4.30
2023-08-31T22:12:29.678Z,4.95
2023-08-31T22:15:31.103Z,5.13
2023-08-31T22:18:32.823Z,5.95
2023-08-31T22:21:34.244Z,5.78
2023-08-31T22:24:35.647Z,5.30
2023-08-31T22:27:37.279Z,4.80
2023-08-31T22:30:38.745Z,5.88
2023-08-31T22:33:40.200Z,5.40
2023-08-31T22:36:41.477Z,5.80
2023-08-31T22:39:42.817Z,5.03
2023-08-31T22:42:45.215Z,5.05
2023-08-31T22:45:55.228Z,5.68
2023-08-31T22:48:56.531Z,6.47
2023-08-31T22:51:57.883Z,4.63
2023-08-31T22:54:59.520Z,4.43
2023-08-31T22:58:00.873Z,4.95
2023-08-31T23:01:03.841Z,4.70
2023-08-31T23:04:05.385Z,3.80
2023-08-31T23:07:06.725Z,4.97
2023-08-31T23:10:16.000Z,4.68
2023-08-31T23:13:20.700Z,4.72
2023-08-31T23:16:22.040Z,3.72
2023-08-31T23:19:23.594Z,4.10
2023-08-31T23:22:24.912Z,4.25
2023-08-31T23:25:26.319Z,3.95
2023-08-31T23:28:28.752Z,4.28
2023-08-31T23:31:30.107Z,4.68
2023-08-31T23:34:31.537Z,4.05
2023-08-31T23:37:32.895Z,4.63
2023-08-31T23:40:34.788Z,4.18
2023-08-31T23:43:36.138Z,4.07
2023-08-31T23:46:37.498Z,3.88
2023-08-31T23:49:38.839Z,4.30
2023-08-31T23:52:40.341Z,5.35
2023-08-31T23:55:42.346Z,4.15
2023-08-31T23:58:43.638Z,4.75
